• Join FlightAware (Why Join?)
  • Login
  • US Flag 
Trick or treat! (Boo!!) 
07:34AM EDT


 

Airport Tracker/Info


-or-


 

Live Flight TrackerFlight Track Log ✈ CHQ3021 ✈ 24-Jun-2013 ✈ KLGA - KCLT

Flight Track Log - Related Links

Times and Time Zones

All times are in EDT time to prevent confusion due to time zone crossing. See the CHQ3021 flight status page for this flight to view local times or setup timezone preferences in your user account.

Time Position Orientation Groundspeed Altitude Reporting Facility
EDT Latitude Longitude Course Direction KTS MPH feet Rate Location/Type
11:45AM 40.8500 -73.9333 270° West 195 224 3,200  Level New York TRACON
11:46AM 40.8833 -73.9833 311° West 219 252 5,000 1,800 Climbing New York TRACON
11:47AM 40.8667 -74.0667 255° West 236 272 6,800 2,040 Climbing New York TRACON
11:48AM 40.6363 -74.2759 242° Southwest  Level FlightAware Approximate
11:48AM 40.8500 -74.1500 255° West 241 277 9,100  Level New York TRACON
11:49AM 40.5969 -74.3760 246° West  Level FlightAware Approximate
11:49AM 40.8000 -74.2333 232° Southwest 289 333 10,200  Level New York TRACON
11:50AM 40.5625 -74.4792 246° West  Level FlightAware Approximate
11:50AM 40.7500 -74.3333 237° Southwest 318 366 11,600  Level New York TRACON
11:51AM 40.5333 -74.5838 270° West  Level FlightAware Approximate
11:52AM 40.6519 -74.5239 236° Southwest 343 395 14,600  Level New York Center
11:53AM 40.5942 -74.6356 236° Southwest 343 395 16,200 1,380 Climbing New York Center
11:54AM 40.5433 -74.7228 233° Southwest 343 395 17,500 1,260 Climbing New York Center
11:55AM 40.4817 -74.8175 229° Southwest 348 400 18,800 1,320 Climbing New York Center
11:56AM 40.4222 -74.9147 231° Southwest 348 400 20,200 1,380 Climbing New York Center
11:57AM 40.3647 -75.0067 231° Southwest 338 389 21,700 1,440 Climbing New York Center
11:58AM 40.3050 -75.1011 230° Southwest 338 389 23,100 1,320 Climbing New York Center
11:59AM 40.2475 -75.1925 231° Southwest 338 389 24,400 1,080 Climbing New York Center
12:00PM 40.1917 -75.2897 233° Southwest 338 389 25,400 900 Climbing New York Center
12:01PM 40.1297 -75.3806 228° Southwest 338 389 26,300 900 Climbing New York Center
12:02PM 40.0656 -75.4742 228° Southwest 344 396 27,200 960 Climbing New York Center
12:03PM 39.9994 -75.5644 226° Southwest 349 402 28,200 900 Climbing New York Center
12:04PM 39.9331 -75.6572 227° Southwest 349 402 29,100 900 Climbing New York Center
12:05PM 39.8706 -75.7531 230° Southwest 354 407 30,100 900 Climbing New York Center
12:06PM 39.8081 -75.8539 231° Southwest 354 407 31,000 840 Climbing New York Center
12:07PM 39.7433 -75.9519 229° Southwest 354 407 31,900 840 Climbing New York Center
12:10PM 39.5892 -76.1947 231° Southwest 365 420 34,000 600 Climbing Washington Center
12:11PM 39.5219 -76.2964 229° Southwest 377 434 34,000  Level Washington Center
12:12PM 39.4525 -76.4058 231° Southwest 382 440 34,000  Level Washington Center
12:13PM 39.3744 -76.5233 229° Southwest 394 453 34,000  Level Washington Center
12:14PM 39.3050 -76.6322 231° Southwest 399 459 34,000  Level Washington Center
12:15PM 39.2372 -76.7411 231° Southwest 399 459 34,000  Level Washington Center
12:16PM 39.1675 -76.8472 230° Southwest 399 459 34,000  Level Washington Center
12:17PM 39.0994 -76.9556 231° Southwest 399 459 34,000  Level Washington Center
12:18PM 39.0253 -77.0558 226° Southwest 399 459 34,000  Level Washington Center
12:19PM 38.9428 -77.1503 222° Southwest 394 453 34,000  Level Washington Center
12:20PM 38.8583 -77.2417 220° Southwest 399 459 34,000  Level Washington Center
12:21PM 38.7758 -77.3306 220° Southwest 399 459 34,000  Level Washington Center
12:22PM 38.6889 -77.4242 220° Southwest 399 459 34,000  Level Washington Center
12:23PM 38.6211 -77.4997 221° Southwest 404 465 34,000  Level Washington Center
12:24PM 38.5297 -77.6008 221° Southwest 404 465 34,000  Level Washington Center
12:25PM 38.4447 -77.6939 221° Southwest 404 465 34,000  Level Washington Center
12:26PM 38.3575 -77.7867 220° Southwest 404 465 34,000  Level Washington Center
12:27PM 38.2767 -77.8769 221° Southwest 404 465 34,000  Level Washington Center
12:28PM 38.1894 -77.9694 220° Southwest 404 465 34,000  Level Washington Center
12:29PM 38.1042 -78.0617 220° Southwest 409 471 34,000  Level Washington Center
12:30PM 38.0103 -78.1586 219° Southwest 409 471 34,000  Level Washington Center
12:31PM 37.9478 -78.2539 230° Southwest 397 457 34,000  Level Washington Center
12:32PM 37.8744 -78.3619 229° Southwest 403 464 34,000  Level Washington Center
12:33PM 37.7989 -78.4642 227° Southwest 403 464 34,000  Level Washington Center
12:34PM 37.7189 -78.5819 229° Southwest 403 464 34,000  Level Washington Center
12:35PM 37.6453 -78.6867 228° Southwest 403 464 34,000  Level Washington Center
12:36PM 37.5717 -78.7911 228° Southwest 403 464 34,000  Level Washington Center
12:37PM 37.4978 -78.8953 228° Southwest 403 464 34,000  Level Washington Center
12:38PM 37.4283 -78.9917 228° Southwest 403 464 34,000 -120 Level Washington Center
12:39PM 37.3525 -79.0956 227° Southwest 403 464 33,800 -720 Descending Washington Center
12:40PM 37.2764 -79.2017 228° Southwest 403 464 32,600 -900 Descending Washington Center
12:41PM 37.1903 -79.2889 219° Southwest 403 464 32,000 -360 Descending Washington Center
12:42PM 37.0981 -79.3650 213° Southwest 403 464 32,000  Level Washington Center
12:43PM 36.9931 -79.4508 213° Southwest 415 478 32,000  Level Washington Center
12:44PM 36.8967 -79.5319 214° Southwest 415 478 32,000  Level Washington Center
12:45PM 36.7981 -79.6125 213° Southwest 427 491 32,000 -60 Level Washington Center
12:46PM 36.6969 -79.6953 213° Southwest 432 497 31,900 -1,260 Descending Washington Center
12:47PM 36.6133 -79.7633 213° Southwest 425 489 29,500 -2,580 Descending Washington Center
12:48PM 36.5253 -79.8361 214° Southwest 408 470 26,800 -3,120 Descending Washington Center
12:49PM 36.3944 -79.9378 212° Southwest 412 474 22,700 -2,160 Descending Atlanta Center
12:50PM 36.3011 -80.0147 214° Southwest 417 480 22,000 -360 Descending Atlanta Center
12:51PM 36.2075 -80.0939 214° Southwest 412 474 22,000 -840 Level Atlanta Center
12:52PM 36.1142 -80.1731 214° Southwest 412 474 20,400 -1,800 Descending Atlanta Center
12:53PM 36.0308 -80.2439 215° Southwest 412 474 18,500 -2,400 Descending Atlanta Center
12:54PM 35.9456 -80.3222 217° Southwest 375 432 15,800 -2,760 Descending Atlanta Center
12:55PM 35.8561 -80.3981 215° Southwest 383 441 13,000 -1,560 Descending Atlanta Center
12:56PM 35.8075 -80.4411 216° Southwest 286 329 13,000 -420 Level Atlanta Center
12:57PM 35.7422 -80.4953 214° Southwest 265 305 12,300 -1,020 Descending Atlanta Center
12:58PM 35.6769 -80.5442 211° Southwest 272 313 11,000 -1,020 Descending Atlanta Center
12:59PM 35.6011 -80.5958 209° Southwest 271 312 10,100 -1,260 Descending Atlanta Center
01:00PM 35.5419 -80.6442 214° Southwest 258 297 8,400 -1,620 Descending Atlanta Center
01:01PM 35.4828 -80.6875 211° Southwest 248 285 7,000 -1,680 Descending Atlanta Center
01:02PM 35.4169 -80.7283 207° Southwest 257 296 4,900 -1,980 Descending Atlanta Center